sensor_id;sensor_type;location;lat;lon;timestamp;P1;durP1;ratioP1;P2;durP2;ratioP2
78664;SDS011;67981;51.022;-2.870;2023-12-07T00:01:32;11.88;;;5.90;;
78664;SDS011;67981;51.022;-2.870;2023-12-07T00:03:59;14.35;;;5.82;;
78664;SDS011;67981;51.022;-2.870;2023-12-07T00:06:25;12.15;;;4.53;;
78664;SDS011;67981;51.022;-2.870;2023-12-07T00:08:51;17.88;;;6.82;;
78664;SDS011;67981;51.022;-2.870;2023-12-07T00:11:17;17.77;;;6.57;;
78664;SDS011;67981;51.022;-2.870;2023-12-07T00:13:42;14.20;;;5.45;;
78664;SDS011;67981;51.022;-2.870;2023-12-07T00:16:07;14.15;;;5.38;;
78664;SDS011;67981;51.022;-2.870;2023-12-07T00:18:33;10.35;;;4.38;;
78664;SDS011;67981;51.022;-2.870;2023-12-07T00:20:58;10.32;;;5.13;;
78664;SDS011;67981;51.022;-2.870;2023-12-07T00:23:24;10.18;;;5.72;;
78664;SDS011;67981;51.022;-2.870;2023-12-07T00:25:49;11.43;;;5.00;;
78664;SDS011;67981;51.022;-2.870;2023-12-07T00:28:15;12.65;;;4.90;;
78664;SDS011;67981;51.022;-2.870;2023-12-07T00:30:41;8.68;;;4.38;;
78664;SDS011;67981;51.022;-2.870;2023-12-07T00:33:07;13.65;;;4.60;;
78664;SDS011;67981;51.022;-2.870;2023-12-07T00:35:34;9.40;;;5.13;;
78664;SDS011;67981;51.022;-2.870;2023-12-07T00:37:59;12.45;;;4.68;;
78664;SDS011;67981;51.022;-2.870;2023-12-07T00:40:25;7.55;;;3.88;;
78664;SDS011;67981;51.022;-2.870;2023-12-07T00:42:50;13.43;;;4.22;;
78664;SDS011;67981;51.022;-2.870;2023-12-07T00:45:16;11.18;;;3.53;;
78664;SDS011;67981;51.022;-2.870;2023-12-07T00:47:41;8.82;;;3.60;;
78664;SDS011;67981;51.022;-2.870;2023-12-07T00:50:07;11.75;;;4.93;;
78664;SDS011;67981;51.022;-2.870;2023-12-07T00:52:33;8.63;;;5.00;;
78664;SDS011;67981;51.022;-2.870;2023-12-07T00:54:58;10.00;;;4.45;;
78664;SDS011;67981;51.022;-2.870;2023-12-07T00:57:24;13.75;;;3.92;;
78664;SDS011;67981;51.022;-2.870;2023-12-07T00:59:49;13.02;;;3.97;;
78664;SDS011;67981;51.022;-2.870;2023-12-07T01:02:14;9.30;;;3.83;;
78664;SDS011;67981;51.022;-2.870;2023-12-07T01:04:40;5.57;;;2.90;;
78664;SDS011;67981;51.022;-2.870;2023-12-07T01:07:05;10.95;;;3.00;;
78664;SDS011;67981;51.022;-2.870;2023-12-07T01:09:31;6.18;;;3.40;;
78664;SDS011;67981;51.022;-2.870;2023-12-07T01:11:56;10.18;;;4.22;;
78664;SDS011;67981;51.022;-2.870;2023-12-07T01:14:23;5.25;;;2.85;;
78664;SDS011;67981;51.022;-2.870;2023-12-07T01:16:49;8.23;;;3.88;;
78664;SDS011;67981;51.022;-2.870;2023-12-07T01:19:14;9.55;;;2.72;;
78664;SDS011;67981;51.022;-2.870;2023-12-07T01:21:40;7.05;;;2.53;;
78664;SDS011;67981;51.022;-2.870;2023-12-07T01:24:06;7.38;;;2.88;;
78664;SDS011;67981;51.022;-2.870;2023-12-07T01:26:32;6.53;;;3.85;;
78664;SDS011;67981;51.022;-2.870;2023-12-07T01:28:57;6.13;;;2.72;;
78664;SDS011;67981;51.022;-2.870;2023-12-07T01:31:23;9.68;;;3.25;;
78664;SDS011;67981;51.022;-2.870;2023-12-07T01:33:48;8.15;;;2.95;;
78664;SDS011;67981;51.022;-2.870;2023-12-07T01:36:14;3.70;;;1.67;;
78664;SDS011;67981;51.022;-2.870;2023-12-07T01:38:39;4.43;;;1.80;;
78664;SDS011;67981;51.022;-2.870;2023-12-07T01:41:05;5.18;;;1.95;;
78664;SDS011;67981;51.022;-2.870;2023-12-07T01:43:30;7.90;;;2.20;;
78664;SDS011;67981;51.022;-2.870;2023-12-07T01:45:56;8.25;;;2.70;;
78664;SDS011;67981;51.022;-2.870;2023-12-07T01:48:23;6.50;;;3.15;;
78664;SDS011;67981;51.022;-2.870;2023-12-07T01:50:49;5.07;;;2.40;;
78664;SDS011;67981;51.022;-2.870;2023-12-07T01:53:15;4.43;;;2.35;;
78664;SDS011;67981;51.022;-2.870;2023-12-07T01:55:41;7.10;;;2.45;;
78664;SDS011;67981;51.022;-2.870;2023-12-07T01:58:07;8.90;;;2.63;;
78664;SDS011;67981;51.022;-2.870;2023-12-07T02:00:33;4.20;;;1.67;;
78664;SDS011;67981;51.022;-2.870;2023-12-07T02:03:00;5.20;;;2.22;;
78664;SDS011;67981;51.022;-2.870;2023-12-07T02:05:27;4.88;;;2.35;;
78664;SDS011;67981;51.022;-2.870;2023-12-07T02:07:54;6.50;;;2.58;;
78664;SDS011;67981;51.022;-2.870;2023-12-07T02:10:19;7.30;;;2.45;;
78664;SDS011;67981;51.022;-2.870;2023-12-07T02:12:45;4.55;;;2.45;;
78664;SDS011;67981;51.022;-2.870;2023-12-07T02:15:12;4.57;;;1.73;;
78664;SDS011;67981;51.022;-2.870;2023-12-07T02:20:08;3.95;;;1.77;;
78664;SDS011;67981;51.022;-2.870;2023-12-07T02:22:44;3.42;;;1.45;;
78664;SDS011;67981;51.022;-2.870;2023-12-07T02:27:43;2.67;;;1.23;;
78664;SDS011;67981;51.022;-2.870;2023-12-07T02:30:11;3.55;;;2.10;;
78664;SDS011;67981;51.022;-2.870;2023-12-07T02:32:37;3.65;;;2.13;;
78664;SDS011;67981;51.022;-2.870;2023-12-07T02:35:07;8.20;;;1.33;;
78664;SDS011;67981;51.022;-2.870;2023-12-07T02:40:11;2.25;;;1.10;;
78664;SDS011;67981;51.022;-2.870;2023-12-07T02:42:40;3.03;;;1.85;;
78664;SDS011;67981;51.022;-2.870;2023-12-07T02:45:08;3.00;;;1.42;;
78664;SDS011;67981;51.022;-2.870;2023-12-07T02:47:34;4.05;;;1.77;;
78664;SDS011;67981;51.022;-2.870;2023-12-07T02:50:00;2.75;;;1.35;;
78664;SDS011;67981;51.022;-2.870;2023-12-07T02:52:25;2.00;;;1.10;;
78664;SDS011;67981;51.022;-2.870;2023-12-07T02:54:51;2.38;;;1.38;;
78664;SDS011;67981;51.022;-2.870;2023-12-07T02:57:16;2.67;;;1.33;;
78664;SDS011;67981;51.022;-2.870;2023-12-07T02:59:41;2.95;;;1.13;;
78664;SDS011;67981;51.022;-2.870;2023-12-07T03:02:07;2.95;;;1.85;;
78664;SDS011;67981;51.022;-2.870;2023-12-07T03:04:32;2.08;;;1.20;;
78664;SDS011;67981;51.022;-2.870;2023-12-07T03:06:58;2.95;;;1.35;;
78664;SDS011;67981;51.022;-2.870;2023-12-07T03:09:24;1.23;;;0.75;;
78664;SDS011;67981;51.022;-2.870;2023-12-07T03:11:49;1.38;;;0.68;;
78664;SDS011;67981;51.022;-2.870;2023-12-07T03:14:15;1.50;;;0.77;;
78664;SDS011;67981;51.022;-2.870;2023-12-07T03:16:41;1.40;;;0.68;;
78664;SDS011;67981;51.022;-2.870;2023-12-07T03:19:06;3.47;;;0.85;;
78664;SDS011;67981;51.022;-2.870;2023-12-07T03:21:31;2.92;;;1.30;;
78664;SDS011;67981;51.022;-2.870;2023-12-07T03:23:57;2.08;;;1.50;;
78664;SDS011;67981;51.022;-2.870;2023-12-07T03:26:22;2.05;;;0.85;;
78664;SDS011;67981;51.022;-2.870;2023-12-07T03:28:48;1.90;;;1.20;;
78664;SDS011;67981;51.022;-2.870;2023-12-07T03:31:13;1.63;;;0.90;;
78664;SDS011;67981;51.022;-2.870;2023-12-07T03:33:40;4.75;;;2.25;;
78664;SDS011;67981;51.022;-2.870;2023-12-07T03:36:06;5.25;;;2.35;;
78664;SDS011;67981;51.022;-2.870;2023-12-07T03:38:32;9.88;;;3.33;;
78664;SDS011;67981;51.022;-2.870;2023-12-07T03:40:58;7.03;;;2.75;;
78664;SDS011;67981;51.022;-2.870;2023-12-07T03:43:23;7.35;;;3.45;;
78664;SDS011;67981;51.022;-2.870;2023-12-07T03:45:48;8.63;;;4.18;;
78664;SDS011;67981;51.022;-2.870;2023-12-07T03:48:14;5.95;;;3.13;;
78664;SDS011;67981;51.022;-2.870;2023-12-07T03:50:40;4.95;;;2.05;;
78664;SDS011;67981;51.022;-2.870;2023-12-07T03:53:05;6.45;;;4.20;;
78664;SDS011;67981;51.022;-2.870;2023-12-07T03:55:30;4.95;;;3.05;;
78664;SDS011;67981;51.022;-2.870;2023-12-07T03:57:56;10.27;;;4.55;;
78664;SDS011;67981;51.022;-2.870;2023-12-07T04:00:21;9.02;;;3.40;;
78664;SDS011;67981;51.022;-2.870;2023-12-07T04:02:47;5.60;;;2.92;;
78664;SDS011;67981;51.022;-2.870;2023-12-07T04:05:12;9.20;;;3.88;;
78664;SDS011;67981;51.022;-2.870;2023-12-07T04:07:38;11.40;;;5.18;;
78664;SDS011;67981;51.022;-2.870;2023-12-07T04:10:04;10.02;;;3.90;;
78664;SDS011;67981;51.022;-2.870;2023-12-07T04:12:31;7.65;;;3.70;;
78664;SDS011;67981;51.022;-2.870;2023-12-07T04:14:57;9.73;;;5.90;;
78664;SDS011;67981;51.022;-2.870;2023-12-07T04:17:22;7.88;;;4.32;;
78664;SDS011;67981;51.022;-2.870;2023-12-07T04:19:48;14.35;;;5.22;;
78664;SDS011;67981;51.022;-2.870;2023-12-07T04:22:13;6.68;;;4.68;;
78664;SDS011;67981;51.022;-2.870;2023-12-07T04:24:38;3.95;;;3.38;;
78664;SDS011;67981;51.022;-2.870;2023-12-07T04:27:04;9.65;;;3.92;;
78664;SDS011;67981;51.022;-2.870;2023-12-07T04:29:29;5.10;;;3.63;;
78664;SDS011;67981;51.022;-2.870;2023-12-07T04:31:55;4.82;;;2.05;;
78664;SDS011;67981;51.022;-2.870;2023-12-07T04:34:20;7.15;;;3.45;;
78664;SDS011;67981;51.022;-2.870;2023-12-07T04:36:46;6.05;;;3.38;;
78664;SDS011;67981;51.022;-2.870;2023-12-07T04:39:11;8.20;;;3.38;;
78664;SDS011;67981;51.022;-2.870;2023-12-07T04:41:37;4.78;;;2.47;;
78664;SDS011;67981;51.022;-2.870;2023-12-07T04:44:02;8.15;;;3.40;;
78664;SDS011;67981;51.022;-2.870;2023-12-07T04:46:28;5.75;;;2.35;;
78664;SDS011;67981;51.022;-2.870;2023-12-07T04:48:54;6.95;;;3.15;;
78664;SDS011;67981;51.022;-2.870;2023-12-07T04:51:19;6.32;;;2.78;;
78664;SDS011;67981;51.022;-2.870;2023-12-07T04:53:45;8.60;;;3.28;;
78664;SDS011;67981;51.022;-2.870;2023-12-07T04:56:11;5.95;;;3.47;;
78664;SDS011;67981;51.022;-2.870;2023-12-07T04:58:37;9.70;;;4.30;;
78664;SDS011;67981;51.022;-2.870;2023-12-07T05:01:02;7.97;;;3.50;;
78664;SDS011;67981;51.022;-2.870;2023-12-07T05:03:28;7.70;;;3.22;;
78664;SDS011;67981;51.022;-2.870;2023-12-07T05:05:54;9.20;;;3.40;;
78664;SDS011;67981;51.022;-2.870;2023-12-07T05:08:20;7.75;;;3.67;;
78664;SDS011;67981;51.022;-2.870;2023-12-07T05:10:45;7.80;;;3.28;;
78664;SDS011;67981;51.022;-2.870;2023-12-07T05:13:10;10.05;;;3.22;;
78664;SDS011;67981;51.022;-2.870;2023-12-07T05:15:36;6.85;;;3.33;;
78664;SDS011;67981;51.022;-2.870;2023-12-07T05:18:01;6.32;;;3.03;;
78664;SDS011;67981;51.022;-2.870;2023-12-07T05:20:27;4.25;;;1.85;;
78664;SDS011;67981;51.022;-2.870;2023-12-07T05:22:54;6.00;;;2.60;;
78664;SDS011;67981;51.022;-2.870;2023-12-07T05:25:19;4.82;;;2.35;;
78664;SDS011;67981;51.022;-2.870;2023-12-07T05:27:45;6.20;;;2.13;;
78664;SDS011;67981;51.022;-2.870;2023-12-07T05:30:10;6.38;;;2.53;;
78664;SDS011;67981;51.022;-2.870;2023-12-07T05:32:37;5.95;;;2.78;;
78664;SDS011;67981;51.022;-2.870;2023-12-07T05:35:02;6.85;;;3.75;;
78664;SDS011;67981;51.022;-2.870;2023-12-07T05:37:28;4.88;;;2.90;;
78664;SDS011;67981;51.022;-2.870;2023-12-07T05:39:54;5.13;;;2.80;;
78664;SDS011;67981;51.022;-2.870;2023-12-07T05:42:19;8.32;;;3.40;;
78664;SDS011;67981;51.022;-2.870;2023-12-07T05:44:44;7.03;;;3.08;;
78664;SDS011;67981;51.022;-2.870;2023-12-07T05:47:10;10.73;;;4.30;;
78664;SDS011;67981;51.022;-2.870;2023-12-07T05:49:35;14.60;;;4.95;;
78664;SDS011;67981;51.022;-2.870;2023-12-07T05:52:01;8.68;;;4.07;;
78664;SDS011;67981;51.022;-2.870;2023-12-07T05:54:27;9.25;;;4.90;;
78664;SDS011;67981;51.022;-2.870;2023-12-07T05:56:53;14.10;;;5.35;;
78664;SDS011;67981;51.022;-2.870;2023-12-07T05:59:19;6.80;;;3.92;;
78664;SDS011;67981;51.022;-2.870;2023-12-07T06:01:44;8.77;;;3.80;;
78664;SDS011;67981;51.022;-2.870;2023-12-07T06:04:09;8.60;;;4.00;;
78664;SDS011;67981;51.022;-2.870;2023-12-07T06:06:37;8.27;;;4.10;;
78664;SDS011;67981;51.022;-2.870;2023-12-07T06:09:02;14.20;;;4.30;;
78664;SDS011;67981;51.022;-2.870;2023-12-07T06:11:28;7.88;;;4.18;;
78664;SDS011;67981;51.022;-2.870;2023-12-07T06:13:53;9.80;;;3.53;;
78664;SDS011;67981;51.022;-2.870;2023-12-07T06:16:20;16.90;;;4.05;;
78664;SDS011;67981;51.022;-2.870;2023-12-07T06:18:45;10.70;;;3.92;;
78664;SDS011;67981;51.022;-2.870;2023-12-07T06:21:11;9.07;;;2.83;;
78664;SDS011;67981;51.022;-2.870;2023-12-07T06:23:37;7.20;;;3.60;;
78664;SDS011;67981;51.022;-2.870;2023-12-07T06:26:03;10.63;;;3.88;;
78664;SDS011;67981;51.022;-2.870;2023-12-07T06:28:30;6.68;;;4.88;;
78664;SDS011;67981;51.022;-2.870;2023-12-07T06:30:57;5.97;;;2.83;;
78664;SDS011;67981;51.022;-2.870;2023-12-07T06:33:22;9.77;;;3.80;;
78664;SDS011;67981;51.022;-2.870;2023-12-07T06:35:48;3.75;;;2.55;;
78664;SDS011;67981;51.022;-2.870;2023-12-07T06:38:13;3.42;;;2.47;;
78664;SDS011;67981;51.022;-2.870;2023-12-07T06:40:39;7.55;;;3.05;;
78664;SDS011;67981;51.022;-2.870;2023-12-07T06:43:04;6.15;;;2.33;;
78664;SDS011;67981;51.022;-2.870;2023-12-07T06:45:29;5.47;;;2.50;;
78664;SDS011;67981;51.022;-2.870;2023-12-07T06:47:55;14.43;;;6.53;;
78664;SDS011;67981;51.022;-2.870;2023-12-07T06:50:20;15.55;;;7.35;;
78664;SDS011;67981;51.022;-2.870;2023-12-07T06:52:46;11.65;;;6.03;;
78664;SDS011;67981;51.022;-2.870;2023-12-07T06:55:11;10.32;;;7.22;;
78664;SDS011;67981;51.022;-2.870;2023-12-07T06:57:37;6.88;;;3.63;;
78664;SDS011;67981;51.022;-2.870;2023-12-07T07:00:03;5.45;;;3.03;;
78664;SDS011;67981;51.022;-2.870;2023-12-07T07:02:31;10.38;;;4.93;;
78664;SDS011;67981;51.022;-2.870;2023-12-07T07:04:56;8.65;;;5.25;;
78664;SDS011;67981;51.022;-2.870;2023-12-07T07:07:22;10.38;;;4.53;;
78664;SDS011;67981;51.022;-2.870;2023-12-07T07:09:47;14.68;;;5.15;;
78664;SDS011;67981;51.022;-2.870;2023-12-07T07:12:12;11.23;;;4.63;;
78664;SDS011;67981;51.022;-2.870;2023-12-07T07:14:38;10.90;;;4.18;;
78664;SDS011;67981;51.022;-2.870;2023-12-07T07:17:04;9.20;;;3.70;;
78664;SDS011;67981;51.022;-2.870;2023-12-07T07:19:30;14.68;;;4.63;;
78664;SDS011;67981;51.022;-2.870;2023-12-07T07:21:55;12.15;;;3.85;;
78664;SDS011;67981;51.022;-2.870;2023-12-07T07:24:20;13.57;;;3.97;;
78664;SDS011;67981;51.022;-2.870;2023-12-07T07:26:46;12.55;;;4.07;;
78664;SDS011;67981;51.022;-2.870;2023-12-07T07:29:11;15.20;;;4.32;;
78664;SDS011;67981;51.022;-2.870;2023-12-07T07:31:37;12.70;;;4.78;;
78664;SDS011;67981;51.022;-2.870;2023-12-07T07:34:02;12.40;;;3.90;;
78664;SDS011;67981;51.022;-2.870;2023-12-07T07:36:28;15.93;;;4.75;;
78664;SDS011;67981;51.022;-2.870;2023-12-07T07:38:54;13.18;;;4.63;;
78664;SDS011;67981;51.022;-2.870;2023-12-07T07:41:19;11.85;;;4.22;;
78664;SDS011;67981;51.022;-2.870;2023-12-07T07:43:45;10.75;;;3.25;;
78664;SDS011;67981;51.022;-2.870;2023-12-07T07:46:10;10.15;;;3.65;;
78664;SDS011;67981;51.022;-2.870;2023-12-07T07:48:36;16.73;;;4.20;;
78664;SDS011;67981;51.022;-2.870;2023-12-07T07:51:02;10.30;;;4.78;;
78664;SDS011;67981;51.022;-2.870;2023-12-07T07:53:28;16.65;;;4.38;;
78664;SDS011;67981;51.022;-2.870;2023-12-07T07:55:53;12.00;;;4.03;;
78664;SDS011;67981;51.022;-2.870;2023-12-07T07:58:19;15.27;;;3.97;;
78664;SDS011;67981;51.022;-2.870;2023-12-07T08:00:45;5.53;;;2.72;;
78664;SDS011;67981;51.022;-2.870;2023-12-07T08:03:11;10.05;;;3.63;;
78664;SDS011;67981;51.022;-2.870;2023-12-07T08:05:37;15.75;;;3.70;;
78664;SDS011;67981;51.022;-2.870;2023-12-07T08:08:02;10.85;;;4.18;;
78664;SDS011;67981;51.022;-2.870;2023-12-07T08:10:28;9.32;;;3.05;;
78664;SDS011;67981;51.022;-2.870;2023-12-07T08:12:53;13.65;;;4.38;;
78664;SDS011;67981;51.022;-2.870;2023-12-07T08:15:19;13.40;;;2.83;;
78664;SDS011;67981;51.022;-2.870;2023-12-07T08:17:46;11.45;;;4.22;;
78664;SDS011;67981;51.022;-2.870;2023-12-07T08:20:12;11.02;;;2.35;;
78664;SDS011;67981;51.022;-2.870;2023-12-07T08:22:39;8.68;;;3.33;;
78664;SDS011;67981;51.022;-2.870;2023-12-07T08:25:09;10.77;;;3.22;;
78664;SDS011;67981;51.022;-2.870;2023-12-07T08:27:39;12.30;;;3.13;;
78664;SDS011;67981;51.022;-2.870;2023-12-07T08:30:05;17.67;;;7.90;;
78664;SDS011;67981;51.022;-2.870;2023-12-07T08:32:31;19.58;;;8.85;;
78664;SDS011;67981;51.022;-2.870;2023-12-07T08:34:56;14.70;;;8.35;;
78664;SDS011;67981;51.022;-2.870;2023-12-07T08:37:22;39.22;;;20.65;;
78664;SDS011;67981;51.022;-2.870;2023-12-07T08:39:47;28.60;;;17.20;;
78664;SDS011;67981;51.022;-2.870;2023-12-07T08:42:13;9.38;;;3.10;;
78664;SDS011;67981;51.022;-2.870;2023-12-07T08:44:38;40.60;;;20.27;;
78664;SDS011;67981;51.022;-2.870;2023-12-07T08:47:04;23.58;;;16.92;;
78664;SDS011;67981;51.022;-2.870;2023-12-07T08:49:30;40.15;;;28.33;;
78664;SDS011;67981;51.022;-2.870;2023-12-07T08:51:56;27.83;;;22.75;;
78664;SDS011;67981;51.022;-2.870;2023-12-07T08:54:21;23.88;;;16.83;;
78664;SDS011;67981;51.022;-2.870;2023-12-07T08:56:47;44.03;;;25.63;;
78664;SDS011;67981;51.022;-2.870;2023-12-07T08:59:13;108.35;;;54.15;;
78664;SDS011;67981;51.022;-2.870;2023-12-07T09:01:38;34.35;;;19.30;;
78664;SDS011;67981;51.022;-2.870;2023-12-07T09:04:03;21.85;;;13.20;;
78664;SDS011;67981;51.022;-2.870;2023-12-07T09:06:30;23.77;;;16.10;;
78664;SDS011;67981;51.022;-2.870;2023-12-07T09:08:56;26.08;;;17.55;;
78664;SDS011;67981;51.022;-2.870;2023-12-07T09:11:21;18.40;;;13.77;;
78664;SDS011;67981;51.022;-2.870;2023-12-07T09:13:46;16.23;;;11.73;;
78664;SDS011;67981;51.022;-2.870;2023-12-07T09:16:12;14.27;;;8.75;;
78664;SDS011;67981;51.022;-2.870;2023-12-07T09:18:38;14.77;;;8.30;;
78664;SDS011;67981;51.022;-2.870;2023-12-07T09:21:03;11.73;;;6.43;;
78664;SDS011;67981;51.022;-2.870;2023-12-07T09:23:29;16.85;;;11.55;;
78664;SDS011;67981;51.022;-2.870;2023-12-07T09:25:54;22.73;;;13.70;;
78664;SDS011;67981;51.022;-2.870;2023-12-07T09:28:20;16.52;;;9.60;;
78664;SDS011;67981;51.022;-2.870;2023-12-07T09:30:45;12.00;;;6.25;;
78664;SDS011;67981;51.022;-2.870;2023-12-07T09:33:10;12.45;;;5.78;;
78664;SDS011;67981;51.022;-2.870;2023-12-07T09:35:36;10.85;;;6.05;;
78664;SDS011;67981;51.022;-2.870;2023-12-07T09:38:01;9.95;;;4.28;;
78664;SDS011;67981;51.022;-2.870;2023-12-07T09:40:27;9.77;;;4.55;;
78664;SDS011;67981;51.022;-2.870;2023-12-07T09:42:53;7.88;;;3.47;;
78664;SDS011;67981;51.022;-2.870;2023-12-07T09:45:18;9.90;;;5.30;;
78664;SDS011;67981;51.022;-2.870;2023-12-07T09:47:49;16.65;;;9.60;;
78664;SDS011;67981;51.022;-2.870;2023-12-07T09:50:16;20.02;;;13.35;;
78664;SDS011;67981;51.022;-2.870;2023-12-07T09:52:43;16.20;;;12.27;;
78664;SDS011;67981;51.022;-2.870;2023-12-07T09:55:08;10.15;;;5.80;;
78664;SDS011;67981;51.022;-2.870;2023-12-07T09:57:35;9.07;;;4.43;;
78664;SDS011;67981;51.022;-2.870;2023-12-07T10:00:02;12.30;;;6.95;;
78664;SDS011;67981;51.022;-2.870;2023-12-07T10:02:29;10.23;;;9.02;;
78664;SDS011;67981;51.022;-2.870;2023-12-07T10:05:08;7.57;;;5.30;;
78664;SDS011;67981;51.022;-2.870;2023-12-07T10:07:36;7.25;;;4.40;;
78664;SDS011;67981;51.022;-2.870;2023-12-07T10:10:04;9.98;;;7.50;;
78664;SDS011;67981;51.022;-2.870;2023-12-07T10:12:30;8.60;;;4.85;;
78664;SDS011;67981;51.022;-2.870;2023-12-07T10:14:58;6.95;;;2.92;;
78664;SDS011;67981;51.022;-2.870;2023-12-07T10:17:26;5.50;;;2.50;;
78664;SDS011;67981;51.022;-2.870;2023-12-07T10:20:08;5.88;;;3.42;;
78664;SDS011;67981;51.022;-2.870;2023-12-07T10:22:34;4.70;;;3.08;;
78664;SDS011;67981;51.022;-2.870;2023-12-07T10:25:00;4.35;;;1.20;;
78664;SDS011;67981;51.022;-2.870;2023-12-07T10:27:25;6.15;;;2.72;;
78664;SDS011;67981;51.022;-2.870;2023-12-07T10:29:53;1.48;;;0.77;;
78664;SDS011;67981;51.022;-2.870;2023-12-07T10:32:18;3.30;;;1.42;;
78664;SDS011;67981;51.022;-2.870;2023-12-07T10:34:44;5.80;;;2.42;;
78664;SDS011;67981;51.022;-2.870;2023-12-07T10:37:10;5.95;;;3.55;;
78664;SDS011;67981;51.022;-2.870;2023-12-07T10:39:35;4.60;;;3.40;;
78664;SDS011;67981;51.022;-2.870;2023-12-07T10:42:01;3.50;;;2.33;;
78664;SDS011;67981;51.022;-2.870;2023-12-07T10:44:27;5.47;;;2.65;;
78664;SDS011;67981;51.022;-2.870;2023-12-07T10:46:54;8.65;;;4.95;;
78664;SDS011;67981;51.022;-2.870;2023-12-07T10:49:21;4.35;;;3.28;;
78664;SDS011;67981;51.022;-2.870;2023-12-07T10:51:54;3.10;;;1.42;;
78664;SDS011;67981;51.022;-2.870;2023-12-07T10:54:27;7.60;;;3.83;;
78664;SDS011;67981;51.022;-2.870;2023-12-07T10:57:00;8.30;;;2.58;;
78664;SDS011;67981;51.022;-2.870;2023-12-07T10:59:30;4.65;;;2.33;;
78664;SDS011;67981;51.022;-2.870;2023-12-07T11:01:57;4.25;;;2.00;;
78664;SDS011;67981;51.022;-2.870;2023-12-07T11:04:23;4.05;;;2.13;;
78664;SDS011;67981;51.022;-2.870;2023-12-07T11:06:50;3.22;;;1.95;;
78664;SDS011;67981;51.022;-2.870;2023-12-07T11:09:21;4.47;;;3.22;;
78664;SDS011;67981;51.022;-2.870;2023-12-07T11:14:29;21.85;;;11.48;;
78664;SDS011;67981;51.022;-2.870;2023-12-07T11:16:55;5.72;;;4.88;;
78664;SDS011;67981;51.022;-2.870;2023-12-07T11:22:10;4.22;;;2.35;;
78664;SDS011;67981;51.022;-2.870;2023-12-07T11:24:38;4.40;;;1.67;;
78664;SDS011;67981;51.022;-2.870;2023-12-07T11:27:16;3.42;;;1.67;;
78664;SDS011;67981;51.022;-2.870;2023-12-07T11:29:41;4.88;;;1.92;;
78664;SDS011;67981;51.022;-2.870;2023-12-07T11:32:07;10.80;;;4.80;;
78664;SDS011;67981;51.022;-2.870;2023-12-07T11:34:35;23.38;;;12.40;;
78664;SDS011;67981;51.022;-2.870;2023-12-07T11:37:04;26.35;;;16.48;;
78664;SDS011;67981;51.022;-2.870;2023-12-07T11:39:35;14.40;;;12.98;;
78664;SDS011;67981;51.022;-2.870;2023-12-07T11:42:11;9.93;;;6.97;;
78664;SDS011;67981;51.022;-2.870;2023-12-07T11:44:40;7.40;;;6.40;;
78664;SDS011;67981;51.022;-2.870;2023-12-07T11:47:07;6.43;;;4.97;;
78664;SDS011;67981;51.022;-2.870;2023-12-07T11:49:34;8.30;;;5.50;;
78664;SDS011;67981;51.022;-2.870;2023-12-07T11:51:59;6.65;;;3.22;;
78664;SDS011;67981;51.022;-2.870;2023-12-07T11:54:26;8.23;;;5.38;;
78664;SDS011;67981;51.022;-2.870;2023-12-07T11:56:53;7.43;;;3.42;;
78664;SDS011;67981;51.022;-2.870;2023-12-07T11:59:19;7.50;;;3.95;;
78664;SDS011;67981;51.022;-2.870;2023-12-07T12:01:48;8.82;;;7.13;;
78664;SDS011;67981;51.022;-2.870;2023-12-07T12:04:16;9.90;;;4.03;;
78664;SDS011;67981;51.022;-2.870;2023-12-07T12:06:45;4.53;;;1.77;;
78664;SDS011;67981;51.022;-2.870;2023-12-07T12:09:13;5.93;;;3.20;;
78664;SDS011;67981;51.022;-2.870;2023-12-07T12:11:46;12.95;;;5.00;;
78664;SDS011;67981;51.022;-2.870;2023-12-07T12:14:13;20.73;;;8.50;;
78664;SDS011;67981;51.022;-2.870;2023-12-07T12:16:41;17.20;;;6.88;;
78664;SDS011;67981;51.022;-2.870;2023-12-07T12:19:07;13.27;;;7.72;;
78664;SDS011;67981;51.022;-2.870;2023-12-07T12:21:34;11.88;;;4.82;;
78664;SDS011;67981;51.022;-2.870;2023-12-07T12:24:00;6.30;;;3.72;;
78664;SDS011;67981;51.022;-2.870;2023-12-07T12:26:25;7.60;;;3.30;;
78664;SDS011;67981;51.022;-2.870;2023-12-07T12:28:51;13.85;;;7.38;;
78664;SDS011;67981;51.022;-2.870;2023-12-07T12:31:17;34.83;;;26.13;;
78664;SDS011;67981;51.022;-2.870;2023-12-07T12:33:43;5.80;;;4.20;;
78664;SDS011;67981;51.022;-2.870;2023-12-07T12:36:08;15.73;;;10.95;;
78664;SDS011;67981;51.022;-2.870;2023-12-07T12:38:36;13.93;;;11.60;;
78664;SDS011;67981;51.022;-2.870;2023-12-07T12:41:02;5.82;;;4.93;;
78664;SDS011;67981;51.022;-2.870;2023-12-07T12:43:29;8.35;;;6.97;;
78664;SDS011;67981;51.022;-2.870;2023-12-07T12:45:56;12.95;;;8.82;;
78664;SDS011;67981;51.022;-2.870;2023-12-07T12:48:23;7.75;;;3.38;;
78664;SDS011;67981;51.022;-2.870;2023-12-07T12:50:48;7.78;;;4.75;;
78664;SDS011;67981;51.022;-2.870;2023-12-07T12:53:14;11.93;;;6.85;;
78664;SDS011;67981;51.022;-2.870;2023-12-07T12:55:40;6.55;;;3.05;;
78664;SDS011;67981;51.022;-2.870;2023-12-07T12:58:07;9.25;;;5.68;;
78664;SDS011;67981;51.022;-2.870;2023-12-07T13:00:34;5.50;;;2.55;;
78664;SDS011;67981;51.022;-2.870;2023-12-07T13:03:04;7.85;;;5.40;;
78664;SDS011;67981;51.022;-2.870;2023-12-07T13:05:31;4.18;;;2.38;;
78664;SDS011;67981;51.022;-2.870;2023-12-07T13:07:58;11.23;;;4.47;;
78664;SDS011;67981;51.022;-2.870;2023-12-07T13:10:25;7.97;;;3.33;;
78664;SDS011;67981;51.022;-2.870;2023-12-07T13:12:50;3.97;;;1.67;;
78664;SDS011;67981;51.022;-2.870;2023-12-07T13:15:16;6.25;;;3.53;;
78664;SDS011;67981;51.022;-2.870;2023-12-07T13:17:42;7.38;;;3.60;;
78664;SDS011;67981;51.022;-2.870;2023-12-07T13:20:08;5.45;;;3.03;;
78664;SDS011;67981;51.022;-2.870;2023-12-07T13:22:39;7.00;;;2.70;;
78664;SDS011;67981;51.022;-2.870;2023-12-07T13:25:12;15.98;;;4.63;;
78664;SDS011;67981;51.022;-2.870;2023-12-07T13:27:41;6.90;;;3.60;;
78664;SDS011;67981;51.022;-2.870;2023-12-07T13:30:08;9.90;;;3.90;;
78664;SDS011;67981;51.022;-2.870;2023-12-07T13:32:34;3.85;;;2.50;;
78664;SDS011;67981;51.022;-2.870;2023-12-07T13:35:02;4.75;;;2.83;;
78664;SDS011;67981;51.022;-2.870;2023-12-07T13:37:28;25.35;;;12.57;;
78664;SDS011;67981;51.022;-2.870;2023-12-07T13:39:53;51.85;;;20.13;;
78664;SDS011;67981;51.022;-2.870;2023-12-07T13:42:23;5.05;;;1.95;;
78664;SDS011;67981;51.022;-2.870;2023-12-07T13:44:52;4.95;;;3.55;;
78664;SDS011;67981;51.022;-2.870;2023-12-07T13:47:25;6.78;;;3.92;;
78664;SDS011;67981;51.022;-2.870;2023-12-07T13:49:57;5.85;;;3.83;;
78664;SDS011;67981;51.022;-2.870;2023-12-07T13:52:24;5.22;;;2.80;;
78664;SDS011;67981;51.022;-2.870;2023-12-07T13:54:49;5.45;;;4.78;;
78664;SDS011;67981;51.022;-2.870;2023-12-07T13:57:15;3.55;;;2.90;;
78664;SDS011;67981;51.022;-2.870;2023-12-07T13:59:41;5.35;;;3.25;;
78664;SDS011;67981;51.022;-2.870;2023-12-07T14:02:06;3.42;;;1.58;;
78664;SDS011;67981;51.022;-2.870;2023-12-07T14:04:32;3.63;;;2.45;;
78664;SDS011;67981;51.022;-2.870;2023-12-07T14:09:34;3.95;;;1.83;;
78664;SDS011;67981;51.022;-2.870;2023-12-07T14:12:00;2.40;;;1.08;;
78664;SDS011;67981;51.022;-2.870;2023-12-07T14:14:25;4.55;;;1.65;;
78664;SDS011;67981;51.022;-2.870;2023-12-07T14:16:51;6.93;;;2.00;;
78664;SDS011;67981;51.022;-2.870;2023-12-07T14:19:16;3.17;;;1.63;;
78664;SDS011;67981;51.022;-2.870;2023-12-07T14:21:41;3.83;;;1.13;;
78664;SDS011;67981;51.022;-2.870;2023-12-07T14:24:08;5.43;;;1.23;;
78664;SDS011;67981;51.022;-2.870;2023-12-07T14:26:34;3.28;;;1.40;;
78664;SDS011;67981;51.022;-2.870;2023-12-07T14:29:00;11.75;;;2.80;;
78664;SDS011;67981;51.022;-2.870;2023-12-07T14:31:26;5.95;;;1.80;;
78664;SDS011;67981;51.022;-2.870;2023-12-07T14:33:51;11.15;;;5.72;;
78664;SDS011;67981;51.022;-2.870;2023-12-07T14:36:16;53.80;;;26.45;;
78664;SDS011;67981;51.022;-2.870;2023-12-07T14:38:42;5.93;;;4.95;;